Time;durP1;ratioP1;P1;durP2;ratioP2;P2;SDS_P1;SDS_P2;PMS_P1;PMS_P2;Temp;Humidity;BMP_temperature;BMP_pressure;BME280_temperature;BME280_humidity;BME280_pressure;Samples;Min_cycle;Max_cycle;Signal;HPM_P1;HPM_P2
2021/10/13 00:00:54;;;;;;;5.50;4.00;;;;;;;;;;5013612;28;20052;-89
2021/10/13 00:03:19;;;;;;;6.83;3.10;;;;;;;;;;5031729;28;20252;-89
2021/10/13 00:05:44;;;;;;;5.82;3.30;;;;;;;;;;5031369;28;20260;-89
2021/10/13 00:08:10;;;;;;;4.55;3.13;;;;;;;;;;5013844;28;20017;-89
2021/10/13 00:10:35;;;;;;;4.47;2.97;;;;;;;;;;5013676;28;20037;-89
2021/10/13 00:13:00;;;;;;;5.30;3.38;;;;;;;;;;5031291;28;20173;-89
2021/10/13 00:15:26;;;;;;;4.60;3.30;;;;;;;;;;5037064;28;20033;-89
2021/10/13 00:17:51;;;;;;;6.18;3.40;;;;;;;;;;5029916;28;20465;-89
2021/10/13 00:20:16;;;;;;;7.22;2.90;;;;;;;;;;5031253;28;20119;-89
2021/10/13 00:22:41;;;;;;;8.38;3.05;;;;;;;;;;5031482;28;20048;-89
2021/10/13 00:25:07;;;;;;;6.93;3.00;;;;;;;;;;5013531;28;20112;-89
2021/10/13 00:27:32;;;;;;;4.45;3.88;;;;;;;;;;5035539;28;20955;-89
2021/10/13 00:29:58;;;;;;;8.07;4.53;;;;;;;;;;5031089;28;20036;-89
2021/10/13 00:32:23;;;;;;;6.57;3.28;;;;;;;;;;5013297;28;20024;-89
2021/10/13 00:34:48;;;;;;;6.85;3.80;;;;;;;;;;5031139;28;20404;-89
2021/10/13 00:37:14;;;;;;;4.35;3.45;;;;;;;;;;5031189;28;20029;-89
2021/10/13 00:39:39;;;;;;;5.55;3.80;;;;;;;;;;5013000;28;20049;-89
2021/10/13 00:42:04;;;;;;;7.73;3.87;;;;;;;;;;5032944;28;20408;-89
2021/10/13 00:44:29;;;;;;;5.63;3.47;;;;;;;;;;5013082;28;20271;-89
2021/10/13 00:46:54;;;;;;;6.22;4.13;;;;;;;;;;5030939;28;20287;-90
2021/10/13 00:49:20;;;;;;;5.07;3.55;;;;;;;;;;5030886;28;20033;-89
2021/10/13 00:51:45;;;;;;;5.10;3.72;;;;;;;;;;5030885;28;20017;-89
2021/10/13 00:54:10;;;;;;;6.05;3.15;;;;;;;;;;5030912;28;20025;-89
2021/10/13 00:56:35;;;;;;;7.65;3.92;;;;;;;;;;5032363;28;20027;-89
2021/10/13 00:59:01;;;;;;;3.88;3.47;;;;;;;;;;5031943;28;20036;-89
2021/10/13 01:01:35;;;;;;;6.38;2.83;;;;;;;;;;5012818;28;20025;-89
2021/10/13 01:04:19;;;;;;;4.55;3.42;;;;;;;;;;5030848;28;20047;-89
2021/10/13 01:06:55;;;;;;;6.78;3.70;;;;;;;;;;5012744;28;20469;-89
2021/10/13 01:09:23;;;;;;;5.35;3.53;;;;;;;;;;5012651;28;20044;-89
2021/10/13 01:12:00;;;;;;;8.88;4.20;;;;;;;;;;5017025;28;20033;-89
2021/10/13 01:14:44;;;;;;;4.32;3.55;;;;;;;;;;5012605;28;20170;-89
2021/10/13 01:17:15;;;;;;;5.45;2.90;;;;;;;;;;5012720;28;20366;-89
2021/10/13 01:19:44;;;;;;;10.90;3.63;;;;;;;;;;5030710;28;20032;-89
2021/10/13 01:22:29;;;;;;;5.95;3.70;;;;;;;;;;5012715;28;20030;-89
2021/10/13 01:25:10;;;;;;;4.13;3.20;;;;;;;;;;5030321;28;20444;-89
2021/10/13 01:27:39;;;;;;;3.55;2.80;;;;;;;;;;5032742;28;20133;-89
2021/10/13 01:30:05;;;;;;;4.05;2.80;;;;;;;;;;5012665;28;20834;-89
2021/10/13 01:32:32;;;;;;;6.40;2.95;;;;;;;;;;5012754;28;20029;-89
2021/10/13 01:35:00;;;;;;;5.93;3.83;;;;;;;;;;5012617;28;20026;-89
2021/10/13 01:37:27;;;;;;;5.22;3.38;;;;;;;;;;5012590;28;20033;-89
2021/10/13 01:39:55;;;;;;;6.95;3.40;;;;;;;;;;5016418;28;20398;-89
2021/10/13 01:42:21;;;;;;;4.40;2.90;;;;;;;;;;5037442;28;20025;-89
2021/10/13 01:44:47;;;;;;;6.93;2.80;;;;;;;;;;5020205;28;20025;-89
2021/10/13 01:47:14;;;;;;;5.85;3.40;;;;;;;;;;5017400;28;20033;-88
2021/10/13 01:49:39;;;;;;;8.63;3.58;;;;;;;;;;5034088;28;20038;-89
2021/10/13 01:52:05;;;;;;;9.00;3.80;;;;;;;;;;5016321;28;20044;-89
2021/10/13 01:54:31;;;;;;;5.68;3.53;;;;;;;;;;5034095;28;20052;-89
2021/10/13 01:56:58;;;;;;;3.88;2.90;;;;;;;;;;5017088;28;20116;-89
2021/10/13 01:59:24;;;;;;;5.38;3.42;;;;;;;;;;5016180;28;20025;-89
2021/10/13 02:01:51;;;;;;;4.22;2.85;;;;;;;;;;5016002;28;20024;-88
2021/10/13 02:04:16;;;;;;;4.25;2.80;;;;;;;;;;5016107;28;20030;-89
2021/10/13 02:06:42;;;;;;;3.47;3.08;;;;;;;;;;5015919;28;20030;-89
2021/10/13 02:09:09;;;;;;;6.13;3.50;;;;;;;;;;5033835;28;20025;-88
2021/10/13 02:11:35;;;;;;;6.18;4.03;;;;;;;;;;5021801;28;20028;-89
2021/10/13 02:14:09;;;;;;;4.53;3.38;;;;;;;;;;5015661;28;20052;-89
2021/10/13 02:16:34;;;;;;;3.95;2.60;;;;;;;;;;5015686;28;20033;-89
2021/10/13 02:19:01;;;;;;;5.57;3.15;;;;;;;;;;5015919;28;20079;-89
2021/10/13 02:21:26;;;;;;;5.50;3.00;;;;;;;;;;5033464;28;20029;-89
2021/10/13 02:23:54;;;;;;;5.45;3.38;;;;;;;;;;5033641;28;20377;-88
2021/10/13 02:26:25;;;;;;;4.22;2.63;;;;;;;;;;5017532;28;20025;-89
2021/10/13 02:28:52;;;;;;;6.35;3.42;;;;;;;;;;5032267;28;20021;-89
2021/10/13 02:31:17;;;;;;;3.78;2.63;;;;;;;;;;5033353;28;20030;-89
2021/10/13 02:33:42;;;;;;;8.35;4.00;;;;;;;;;;5015730;28;20037;-89
2021/10/13 02:36:08;;;;;;;3.53;3.03;;;;;;;;;;5015244;28;20021;-88
2021/10/13 02:38:33;;;;;;;5.63;3.47;;;;;;;;;;5033330;28;20766;-89
2021/10/13 02:40:58;;;;;;;3.53;2.63;;;;;;;;;;5037936;28;20276;-89
2021/10/13 02:43:24;;;;;;;7.65;3.33;;;;;;;;;;5033131;28;20021;-89
2021/10/13 02:46:18;;;;;;;6.32;3.78;;;;;;;;;;5031711;28;20017;-89
2021/10/13 02:48:48;;;;;;;6.35;3.05;;;;;;;;;;5018626;28;20448;-89
2021/10/13 02:51:28;;;;;;;8.38;3.83;;;;;;;;;;5032256;28;20037;-88
2021/10/13 02:54:00;;;;;;;6.25;3.55;;;;;;;;;;5015227;28;20436;-89
2021/10/13 02:56:28;;;;;;;3.67;3.10;;;;;;;;;;5018954;28;20033;-89
2021/10/13 02:59:12;;;;;;;7.63;3.63;;;;;;;;;;5015066;28;20029;-89
2021/10/13 03:01:38;;;;;;;10.00;3.33;;;;;;;;;;5015026;28;20029;-89
2021/10/13 03:04:04;;;;;;;5.30;3.22;;;;;;;;;;5032656;28;20045;-89
2021/10/13 03:06:40;;;;;;;4.80;4.00;;;;;;;;;;5014868;28;20581;-89
2021/10/13 03:09:07;;;;;;;5.07;3.00;;;;;;;;;;5021553;28;20497;-89
2021/10/13 03:11:32;;;;;;;7.55;3.50;;;;;;;;;;5032602;28;20126;-89
2021/10/13 03:13:59;;;;;;;5.38;3.42;;;;;;;;;;5014612;28;20540;-89
2021/10/13 03:16:26;;;;;;;6.43;4.05;;;;;;;;;;5032463;28;20112;-89
2021/10/13 03:18:51;;;;;;;5.57;4.05;;;;;;;;;;5032635;28;20473;-89
2021/10/13 03:21:17;;;;;;;4.32;3.60;;;;;;;;;;5032315;28;20083;-89
2021/10/13 03:23:42;;;;;;;4.47;3.80;;;;;;;;;;5032491;28;20096;-89
2021/10/13 03:26:08;;;;;;;5.70;4.00;;;;;;;;;;5036989;28;20515;-88
2021/10/13 03:28:33;;;;;;;4.53;3.42;;;;;;;;;;5014335;28;20380;-88
2021/10/13 03:30:59;;;;;;;8.38;4.05;;;;;;;;;;5014300;28;20037;-89
2021/10/13 03:33:24;;;;;;;6.32;4.43;;;;;;;;;;5032299;28;20072;-88
2021/10/13 03:35:49;;;;;;;6.73;4.33;;;;;;;;;;5032000;28;20071;-89
2021/10/13 03:38:15;;;;;;;5.38;4.15;;;;;;;;;;5032358;28;20268;-89
2021/10/13 03:40:40;;;;;;;5.50;3.17;;;;;;;;;;5014240;28;20053;-89
2021/10/13 03:43:05;;;;;;;9.23;3.70;;;;;;;;;;5016434;28;20025;-89
2021/10/13 03:45:30;;;;;;;6.38;4.13;;;;;;;;;;5014097;28;20722;-89
2021/10/13 03:47:55;;;;;;;4.07;3.33;;;;;;;;;;5014225;28;20120;-89
2021/10/13 03:50:21;;;;;;;5.40;3.90;;;;;;;;;;5014125;28;20033;-89
2021/10/13 03:52:46;;;;;;;10.80;4.30;;;;;;;;;;5031929;28;20621;-88
2021/10/13 03:55:13;;;;;;;6.68;4.13;;;;;;;;;;5014424;28;20026;-88
2021/10/13 03:57:39;;;;;;;6.22;4.50;;;;;;;;;;5036496;28;20026;-89
2021/10/13 04:00:05;;;;;;;5.93;3.88;;;;;;;;;;5030211;28;20064;-88
2021/10/13 04:02:30;;;;;;;6.13;5.00;;;;;;;;;;5030661;28;20058;-88
2021/10/13 04:04:56;;;;;;;5.30;3.80;;;;;;;;;;5031589;28;20033;-89
2021/10/13 04:07:21;;;;;;;6.27;4.37;;;;;;;;;;5013827;28;20267;-88
2021/10/13 04:09:46;;;;;;;3.92;3.40;;;;;;;;;;5015475;28;20292;-89
2021/10/13 04:12:11;;;;;;;7.05;4.07;;;;;;;;;;5013967;28;20025;-89
2021/10/13 04:14:37;;;;;;;5.75;4.50;;;;;;;;;;5014625;28;20050;-89
2021/10/13 04:17:02;;;;;;;5.40;4.07;;;;;;;;;;5032910;28;20033;-89
2021/10/13 04:19:27;;;;;;;5.75;4.68;;;;;;;;;;5031842;28;20033;-89
2021/10/13 04:21:52;;;;;;;4.43;3.47;;;;;;;;;;5031358;28;20063;-90
2021/10/13 04:24:17;;;;;;;6.05;3.35;;;;;;;;;;5014078;28;20267;-89
2021/10/13 04:26:43;;;;;;;4.82;3.90;;;;;;;;;;5023202;28;20064;-90
2021/10/13 04:29:08;;;;;;;3.43;3.10;;;;;;;;;;5031258;28;20021;-90
2021/10/13 04:31:33;;;;;;;4.03;3.00;;;;;;;;;;5013553;28;20292;-89
2021/10/13 04:33:58;;;;;;;4.68;3.05;;;;;;;;;;5013440;28;20067;-89
2021/10/13 04:36:23;;;;;;;5.28;3.78;;;;;;;;;;5031206;28;20060;-89
2021/10/13 04:38:49;;;;;;;3.67;2.78;;;;;;;;;;5013638;28;20072;-89
2021/10/13 04:41:14;;;;;;;4.50;3.63;;;;;;;;;;5033143;28;20030;-89
2021/10/13 04:43:39;;;;;;;5.07;3.10;;;;;;;;;;5031314;28;20658;-89
2021/10/13 04:46:04;;;;;;;8.50;2.63;;;;;;;;;;5013176;28;20264;-89
2021/10/13 04:48:30;;;;;;;3.60;2.50;;;;;;;;;;5013075;28;20256;-89
2021/10/13 04:50:55;;;;;;;9.20;3.28;;;;;;;;;;5012898;28;20033;-89
2021/10/13 04:53:20;;;;;;;7.57;2.87;;;;;;;;;;5012965;28;20025;-89
2021/10/13 04:55:45;;;;;;;3.20;2.70;;;;;;;;;;5013094;28;20269;-89
2021/10/13 04:58:10;;;;;;;3.80;3.20;;;;;;;;;;5015392;28;20495;-88
2021/10/13 05:00:35;;;;;;;5.82;2.65;;;;;;;;;;5012794;28;20362;-89
2021/10/13 05:03:01;;;;;;;2.57;2.37;;;;;;;;;;5012979;28;20027;-89
2021/10/13 05:05:26;;;;;;;4.75;2.35;;;;;;;;;;5031076;28;20248;-89
2021/10/13 05:07:51;;;;;;;7.45;2.65;;;;;;;;;;5012986;28;20037;-89
2021/10/13 05:10:17;;;;;;;6.90;2.87;;;;;;;;;;5030981;28;20032;-89
2021/10/13 05:12:42;;;;;;;5.25;2.85;;;;;;;;;;5035326;28;20736;-89
2021/10/13 05:15:07;;;;;;;9.33;2.57;;;;;;;;;;5037242;28;20021;-89
2021/10/13 05:17:32;;;;;;;9.35;2.83;;;;;;;;;;5037398;28;20436;-89
2021/10/13 05:19:58;;;;;;;11.43;3.38;;;;;;;;;;5019271;28;20144;-89
2021/10/13 05:22:23;;;;;;;5.72;3.70;;;;;;;;;;5037061;28;20017;-89
2021/10/13 05:24:48;;;;;;;5.95;3.60;;;;;;;;;;5037060;28;20111;-89
2021/10/13 05:27:13;;;;;;;8.35;3.25;;;;;;;;;;5019200;28;20052;-89
2021/10/13 05:29:39;;;;;;;5.07;3.20;;;;;;;;;;5021470;28;20053;-89
2021/10/13 05:32:04;;;;;;;5.22;2.92;;;;;;;;;;5037348;28;20014;-89
2021/10/13 05:34:29;;;;;;;6.63;3.15;;;;;;;;;;5038401;28;20063;-89
2021/10/13 05:36:54;;;;;;;7.90;3.50;;;;;;;;;;5019981;28;20473;-89
2021/10/13 05:39:20;;;;;;;9.73;3.90;;;;;;;;;;5036992;28;20314;-88
2021/10/13 05:41:45;;;;;;;5.87;3.43;;;;;;;;;;5019167;28;20711;-89
2021/10/13 05:44:10;;;;;;;4.20;3.20;;;;;;;;;;5035528;28;20258;-89
2021/10/13 05:46:35;;;;;;;8.23;4.10;;;;;;;;;;5026639;28;20249;-89
2021/10/13 05:49:00;;;;;;;4.40;3.20;;;;;;;;;;5041564;28;20264;-89
2021/10/13 05:51:25;;;;;;;6.05;3.30;;;;;;;;;;5018846;28;20287;-89
2021/10/13 05:53:52;;;;;;;6.10;3.40;;;;;;;;;;5036787;28;20021;-89
2021/10/13 05:56:17;;;;;;;5.95;4.00;;;;;;;;;;5062392;23;20193;-89
2021/10/13 05:58:42;;;;;;;8.48;3.35;;;;;;;;;;4991163;28;20863;-89
2021/10/13 06:01:08;;;;;;;11.25;3.40;;;;;;;;;;4981986;28;20502;-89
2021/10/13 06:03:33;;;;;;;7.55;3.33;;;;;;;;;;4972146;28;20027;-89
2021/10/13 06:05:58;;;;;;;11.60;3.55;;;;;;;;;;4972726;28;20490;-89
2021/10/13 06:08:23;;;;;;;9.50;3.80;;;;;;;;;;4970971;28;20065;-89
2021/10/13 06:10:49;;;;;;;6.22;3.60;;;;;;;;;;4978908;28;20031;-89
2021/10/13 06:13:14;;;;;;;10.40;4.38;;;;;;;;;;4966012;28;20113;-89
2021/10/13 06:15:39;;;;;;;6.90;3.60;;;;;;;;;;4995880;28;20084;-89
2021/10/13 06:18:05;;;;;;;9.55;3.60;;;;;;;;;;4990028;28;20062;-89
2021/10/13 06:20:30;;;;;;;16.38;4.45;;;;;;;;;;4995659;28;20049;-89
2021/10/13 06:22:55;;;;;;;12.52;4.43;;;;;;;;;;4995291;28;20482;-89
2021/10/13 06:25:21;;;;;;;9.95;2.83;;;;;;;;;;4987477;28;20381;-89
2021/10/13 06:27:46;;;;;;;5.90;2.33;;;;;;;;;;4993658;28;20820;-89
2021/10/13 06:30:12;;;;;;;12.77;3.28;;;;;;;;;;4985831;28;20037;-88
2021/10/13 06:32:37;;;;;;;10.43;2.50;;;;;;;;;;4992029;28;20355;-89
2021/10/13 06:35:02;;;;;;;8.43;3.17;;;;;;;;;;4993399;28;20022;-89
2021/10/13 06:37:27;;;;;;;11.70;4.38;;;;;;;;;;4993454;28;20783;-89
2021/10/13 06:39:53;;;;;;;12.33;4.80;;;;;;;;;;4991302;28;20112;-89
2021/10/13 06:42:18;;;;;;;11.45;2.67;;;;;;;;;;4986697;28;20336;-89
2021/10/13 06:44:43;;;;;;;10.87;2.93;;;;;;;;;;4993340;28;20133;-89
2021/10/13 06:47:08;;;;;;;10.52;4.00;;;;;;;;;;4985252;28;20272;-89
2021/10/13 06:49:34;;;;;;;8.70;3.17;;;;;;;;;;4991879;28;20034;-89
2021/10/13 06:51:59;;;;;;;9.23;2.58;;;;;;;;;;4984066;28;20042;-89
2021/10/13 06:54:26;;;;;;;10.38;4.05;;;;;;;;;;4992085;28;20357;-89
2021/10/13 06:56:52;;;;;;;10.50;3.30;;;;;;;;;;4994965;28;20057;-89
2021/10/13 06:59:20;;;;;;;12.85;3.08;;;;;;;;;;4995321;28;20033;-89
2021/10/13 07:01:45;;;;;;;11.70;3.75;;;;;;;;;;4982932;28;20072;-89
2021/10/13 07:04:10;;;;;;;14.25;3.50;;;;;;;;;;4975592;28;20482;-89
2021/10/13 07:06:35;;;;;;;17.67;3.88;;;;;;;;;;4975098;28;20492;-89
2021/10/13 07:09:01;;;;;;;8.52;3.50;;;;;;;;;;4975221;28;20026;-89
2021/10/13 07:11:26;;;;;;;16.50;3.63;;;;;;;;;;4975046;28;20046;-89
2021/10/13 07:13:51;;;;;;;8.82;4.40;;;;;;;;;;4975364;28;20027;-90
2021/10/13 07:16:16;;;;;;;9.03;4.20;;;;;;;;;;4975407;28;20033;-89
2021/10/13 07:18:41;;;;;;;11.18;3.80;;;;;;;;;;4974731;28;20266;-89
2021/10/13 07:21:07;;;;;;;10.18;2.90;;;;;;;;;;4992511;28;20053;-89
2021/10/13 07:23:32;;;;;;;8.52;2.50;;;;;;;;;;4974655;28;20026;-89
2021/10/13 07:25:57;;;;;;;14.13;4.03;;;;;;;;;;4974820;28;20025;-89
2021/10/13 07:28:24;;;;;;;12.63;2.80;;;;;;;;;;4974728;28;20442;-89
2021/10/13 07:30:50;;;;;;;11.55;3.10;;;;;;;;;;4974689;28;20057;-89
2021/10/13 07:33:15;;;;;;;13.40;3.00;;;;;;;;;;4992173;28;20298;-89
2021/10/13 07:35:40;;;;;;;10.15;2.78;;;;;;;;;;4977425;28;20327;-89
2021/10/13 07:38:08;;;;;;;25.00;2.85;;;;;;;;;;4978491;28;20081;-89
2021/10/13 07:40:34;;;;;;;13.05;2.72;;;;;;;;;;4971244;28;20499;-89
2021/10/13 07:42:59;;;;;;;9.55;2.42;;;;;;;;;;4972630;28;20034;-89
2021/10/13 07:45:24;;;;;;;10.80;2.63;;;;;;;;;;4955301;28;20034;-89
2021/10/13 07:47:50;;;;;;;9.55;2.70;;;;;;;;;;4955380;28;20443;-89
2021/10/13 07:50:15;;;;;;;15.30;2.67;;;;;;;;;;4972791;28;20039;-89
2021/10/13 07:52:41;;;;;;;15.90;2.78;;;;;;;;;;4974440;28;20788;-89
2021/10/13 07:55:06;;;;;;;11.20;2.63;;;;;;;;;;4973673;28;20113;-89
2021/10/13 07:57:31;;;;;;;10.80;2.88;;;;;;;;;;4991403;28;20085;-89
2021/10/13 07:59:57;;;;;;;14.90;2.75;;;;;;;;;;4991845;28;20022;-89
2021/10/13 08:02:22;;;;;;;11.10;2.53;;;;;;;;;;4973790;28;20030;-89
2021/10/13 08:04:47;;;;;;;5.93;2.65;;;;;;;;;;4973803;28;20058;-89
2021/10/13 08:07:13;;;;;;;10.88;2.90;;;;;;;;;;4974277;28;20057;-89
2021/10/13 08:09:38;;;;;;;12.80;3.05;;;;;;;;;;4991588;28;20117;-87
2021/10/13 08:12:03;;;;;;;14.27;2.63;;;;;;;;;;4991628;28;20053;-87
2021/10/13 08:14:29;;;;;;;11.10;3.10;;;;;;;;;;4973923;28;20686;-86
2021/10/13 08:16:54;;;;;;;11.82;2.13;;;;;;;;;;4974181;28;20026;-87
2021/10/13 08:19:20;;;;;;;12.80;2.72;;;;;;;;;;4992037;28;20023;-87
2021/10/13 08:21:45;;;;;;;12.52;2.92;;;;;;;;;;4974314;28;20370;-87
2021/10/13 08:24:10;;;;;;;11.43;2.50;;;;;;;;;;4974076;28;20057;-87
2021/10/13 08:26:36;;;;;;;10.20;2.70;;;;;;;;;;4973737;28;20130;-87
2021/10/13 08:29:01;;;;;;;9.52;3.10;;;;;;;;;;4991310;28;20145;-87
2021/10/13 08:31:26;;;;;;;12.73;2.65;;;;;;;;;;4973280;28;20062;-87
2021/10/13 08:33:52;;;;;;;15.13;3.10;;;;;;;;;;4973647;28;20554;-87
2021/10/13 08:36:17;;;;;;;10.77;3.75;;;;;;;;;;4991115;28;20033;-87
2021/10/13 08:38:43;;;;;;;15.57;3.10;;;;;;;;;;4973570;28;20022;-87
2021/10/13 08:41:09;;;;;;;14.43;3.57;;;;;;;;;;4991373;28;20045;-87
2021/10/13 08:43:34;;;;;;;16.40;3.60;;;;;;;;;;4973659;28;20038;-87
2021/10/13 08:45:59;;;;;;;10.80;3.30;;;;;;;;;;4973711;28;20034;-87
2021/10/13 08:48:25;;;;;;;11.05;3.20;;;;;;;;;;4973802;28;20265;-87
2021/10/13 08:50:50;;;;;;;15.40;3.40;;;;;;;;;;4973512;28;20034;-87
2021/10/13 08:53:18;;;;;;;9.57;3.22;;;;;;;;;;4973699;28;20124;-87
2021/10/13 08:55:44;;;;;;;11.20;2.90;;;;;;;;;;4973252;28;20836;-88
2021/10/13 08:58:12;;;;;;;14.20;3.10;;;;;;;;;;4973173;28;20046;-87
2021/10/13 09:00:39;;;;;;;11.82;2.95;;;;;;;;;;4990829;28;20026;-87
2021/10/13 09:03:04;;;;;;;11.05;3.30;;;;;;;;;;4990899;28;20018;-87
2021/10/13 09:05:30;;;;;;;7.05;2.45;;;;;;;;;;4977515;28;20030;-87
2021/10/13 09:07:56;;;;;;;14.07;2.30;;;;;;;;;;4973456;28;20030;-87
2021/10/13 09:10:32;;;;;;;14.23;2.92;;;;;;;;;;4991179;28;20034;-87
2021/10/13 09:12:58;;;;;;;9.80;2.03;;;;;;;;;;4990579;28;20037;-87
2021/10/13 09:15:27;;;;;;;14.43;2.20;;;;;;;;;;4991181;28;20032;-87
2021/10/13 09:17:57;;;;;;;9.68;2.22;;;;;;;;;;5006919;28;20029;-87
2021/10/13 09:20:23;;;;;;;11.05;2.15;;;;;;;;;;5007839;28;20505;-87
2021/10/13 09:23:04;;;;;;;11.95;2.70;;;;;;;;;;4969363;28;20029;-87
2021/10/13 09:25:30;;;;;;;13.85;2.38;;;;;;;;;;4984506;28;20478;-87
2021/10/13 09:27:55;;;;;;;14.30;2.83;;;;;;;;;;4982765;28;20027;-87
2021/10/13 09:30:25;;;;;;;20.52;3.05;;;;;;;;;;4973248;28;20479;-88
2021/10/13 09:32:50;;;;;;;10.60;2.92;;;;;;;;;;4973579;28;20026;-87
2021/10/13 09:35:25;;;;;;;9.38;2.40;;;;;;;;;;4973425;28;20033;-88
2021/10/13 09:37:50;;;;;;;12.10;2.53;;;;;;;;;;4973834;28;20030;-87
2021/10/13 09:40:32;;;;;;;12.25;2.95;;;;;;;;;;4991177;28;20039;-87
2021/10/13 09:43:00;;;;;;;15.25;2.38;;;;;;;;;;4973227;28;20398;-87
2021/10/13 09:45:29;;;;;;;8.25;2.35;;;;;;;;;;4990961;28;20022;-87
2021/10/13 09:47:58;;;;;;;13.40;2.83;;;;;;;;;;4973144;28;20092;-88
2021/10/13 09:50:38;;;;;;;9.45;2.63;;;;;;;;;;4973210;28;20129;-87
2021/10/13 09:53:16;;;;;;;10.10;2.75;;;;;;;;;;4972593;28;20038;-87
2021/10/13 09:55:41;;;;;;;11.02;2.45;;;;;;;;;;4990387;28;20026;-87
2021/10/13 09:58:20;;;;;;;13.00;3.20;;;;;;;;;;4971775;28;20501;-87
2021/10/13 10:00:45;;;;;;;10.52;2.50;;;;;;;;;;4973658;28;20015;-87
2021/10/13 10:03:10;;;;;;;10.37;1.90;;;;;;;;;;4992918;28;20371;-87
2021/10/13 10:05:37;;;;;;;8.82;2.10;;;;;;;;;;4975023;28;20269;-87
2021/10/13 10:08:03;;;;;;;11.15;2.58;;;;;;;;;;4992677;28;20014;-87
2021/10/13 10:10:29;;;;;;;11.77;2.28;;;;;;;;;;4974937;28;20597;-87
2021/10/13 10:12:58;;;;;;;14.95;2.17;;;;;;;;;;4974899;28;20047;-87
2021/10/13 10:15:31;;;;;;;7.25;2.08;;;;;;;;;;4975258;28;20036;-87
2021/10/13 10:17:57;;;;;;;11.85;2.88;;;;;;;;;;4992551;28;20062;-87
2021/10/13 10:20:39;;;;;;;8.57;1.83;;;;;;;;;;4974767;28;20096;-87
2021/10/13 10:23:23;;;;;;;9.60;1.90;;;;;;;;;;4975010;28;20454;-87
2021/10/13 10:25:48;;;;;;;7.70;1.95;;;;;;;;;;4975253;28;20026;-87
2021/10/13 10:28:32;;;;;;;7.95;1.77;;;;;;;;;;4974838;28;20423;-86
2021/10/13 10:31:18;;;;;;;9.25;2.38;;;;;;;;;;4974514;28;20038;-87
2021/10/13 10:33:49;;;;;;;10.85;2.30;;;;;;;;;;4975081;28;20018;-87
2021/10/13 10:36:14;;;;;;;6.03;1.90;;;;;;;;;;4992194;28;20026;-87
2021/10/13 10:38:47;;;;;;;8.32;2.25;;;;;;;;;;4974514;28;20026;-87
2021/10/13 10:41:13;;;;;;;9.40;2.00;;;;;;;;;;4974847;28;20031;-87
2021/10/13 10:43:38;;;;;;;7.85;2.05;;;;;;;;;;4992415;28;20721;-87
2021/10/13 10:46:03;;;;;;;13.45;2.58;;;;;;;;;;4991596;28;20022;-87
2021/10/13 10:48:45;;;;;;;6.85;1.52;;;;;;;;;;4974405;28;20030;-87
2021/10/13 10:51:10;;;;;;;9.45;1.70;;;;;;;;;;4974593;28;20426;-87
2021/10/13 10:53:37;;;;;;;8.85;1.80;;;;;;;;;;4974375;28;20027;-87
2021/10/13 10:56:22;;;;;;;7.72;1.50;;;;;;;;;;4954305;28;1086418;-87
2021/10/13 10:58:57;;;;;;;6.85;1.77;;;;;;;;;;4975576;28;20498;-87
2021/10/13 11:01:23;;;;;;;10.07;1.77;;;;;;;;;;4992900;28;20450;-87
2021/10/13 11:03:48;;;;;;;8.65;2.40;;;;;;;;;;4975609;28;20026;-87
2021/10/13 11:06:17;;;;;;;9.97;1.60;;;;;;;;;;4993074;28;20033;-87
2021/10/13 11:09:04;;;;;;;10.65;1.77;;;;;;;;;;4975141;28;20348;-87
2021/10/13 11:11:33;;;;;;;14.60;1.92;;;;;;;;;;4974592;28;20109;-87
2021/10/13 11:14:04;;;;;;;10.27;2.00;;;;;;;;;;4974818;28;20398;-87
2021/10/13 11:16:30;;;;;;;9.73;1.90;;;;;;;;;;4992349;28;20030;-87
2021/10/13 11:19:08;;;;;;;6.53;1.77;;;;;;;;;;4992643;28;20023;-87
2021/10/13 11:21:33;;;;;;;5.95;1.77;;;;;;;;;;4974217;28;20029;-87
2021/10/13 11:23:59;;;;;;;5.88;1.58;;;;;;;;;;4992601;28;20467;-87
2021/10/13 11:26:28;;;;;;;10.00;1.80;;;;;;;;;;4974862;28;20027;-87
2021/10/13 11:28:53;;;;;;;6.50;1.90;;;;;;;;;;4992469;28;20250;-87
2021/10/13 11:31:18;;;;;;;7.63;1.60;;;;;;;;;;4974597;28;20549;-87
2021/10/13 11:33:43;;;;;;;8.97;1.73;;;;;;;;;;4992390;28;20363;-87
2021/10/13 11:36:09;;;;;;;7.10;1.53;;;;;;;;;;4992320;28;20293;-87
2021/10/13 11:38:35;;;;;;;4.82;1.60;;;;;;;;;;4992170;28;20274;-87
2021/10/13 11:41:04;;;;;;;8.80;1.83;;;;;;;;;;4974516;28;20364;-87
2021/10/13 11:43:30;;;;;;;7.68;1.80;;;;;;;;;;4992104;28;20406;-87
2021/10/13 11:45:55;;;;;;;9.73;1.70;;;;;;;;;;4973746;28;20165;-87
2021/10/13 11:48:28;;;;;;;7.43;2.07;;;;;;;;;;4974675;28;20053;-86
2021/10/13 11:50:54;;;;;;;7.00;1.88;;;;;;;;;;4974405;28;20301;-87
2021/10/13 11:53:20;;;;;;;8.95;1.77;;;;;;;;;;4974557;28;20037;-88
2021/10/13 11:55:45;;;;;;;9.80;2.58;;;;;;;;;;4974549;28;20109;-88
2021/10/13 11:58:10;;;;;;;8.45;1.83;;;;;;;;;;4974128;28;20054;-88
2021/10/13 12:00:54;;;;;;;8.73;2.00;;;;;;;;;;4974133;28;20030;-88
2021/10/13 12:03:28;;;;;;;7.78;2.10;;;;;;;;;;4974625;28;20277;-88
2021/10/13 12:05:54;;;;;;;7.43;2.05;;;;;;;;;;4974864;28;20018;-89
2021/10/13 12:08:27;;;;;;;8.73;1.77;;;;;;;;;;4974970;28;20486;-89
2021/10/13 12:10:54;;;;;;;4.13;1.65;;;;;;;;;;4991939;28;20050;-87
2021/10/13 12:13:24;;;;;;;10.13;1.85;;;;;;;;;;4992062;28;20090;-87
2021/10/13 12:15:50;;;;;;;8.90;2.08;;;;;;;;;;4991471;28;20029;-87
2021/10/13 12:18:19;;;;;;;5.30;1.80;;;;;;;;;;4991785;28;20022;-88
2021/10/13 12:20:48;;;;;;;9.27;2.03;;;;;;;;;;4973437;28;20106;-88
2021/10/13 12:23:15;;;;;;;6.93;2.00;;;;;;;;;;4973463;28;20028;-87
2021/10/13 12:25:41;;;;;;;5.95;1.70;;;;;;;;;;4974336;28;20038;-88
2021/10/13 12:28:26;;;;;;;6.63;1.67;;;;;;;;;;4977281;28;20116;-88
2021/10/13 12:31:00;;;;;;;4.85;1.25;;;;;;;;;;4997500;28;20057;-88
2021/10/13 12:33:25;;;;;;;7.32;1.60;;;;;;;;;;5002609;28;20014;-88
2021/10/13 12:35:50;;;;;;;3.95;1.48;;;;;;;;;;5018674;28;20030;-88
2021/10/13 12:38:17;;;;;;;4.78;1.40;;;;;;;;;;5000847;28;20097;-88
2021/10/13 12:40:59;;;;;;;6.15;1.70;;;;;;;;;;4997546;28;20033;-89
2021/10/13 12:43:24;;;;;;;6.55;1.75;;;;;;;;;;4997601;28;20136;-88
2021/10/13 12:45:50;;;;;;;8.45;2.10;;;;;;;;;;4973765;28;20470;-88
2021/10/13 12:48:16;;;;;;;6.47;2.03;;;;;;;;;;4973699;28;20076;-88
2021/10/13 12:51:01;;;;;;;4.45;2.15;;;;;;;;;;4973515;28;20038;-88
2021/10/13 12:53:26;;;;;;;10.48;2.35;;;;;;;;;;4990676;28;20117;-88
2021/10/13 12:55:52;;;;;;;6.60;2.37;;;;;;;;;;4990823;28;20026;-88
2021/10/13 12:58:23;;;;;;;5.43;2.17;;;;;;;;;;4970022;28;20282;-88
2021/10/13 13:00:48;;;;;;;12.02;1.90;;;;;;;;;;4970260;28;20353;-88
2021/10/13 13:03:14;;;;;;;6.37;1.50;;;;;;;;;;4971812;28;20106;-89
2021/10/13 13:05:39;;;;;;;4.17;1.50;;;;;;;;;;4971502;28;20266;-89
2021/10/13 13:08:04;;;;;;;7.63;2.20;;;;;;;;;;4969846;28;20659;-88
2021/10/13 13:10:29;;;;;;;5.00;2.00;;;;;;;;;;4969813;28;20038;-88
2021/10/13 13:12:55;;;;;;;5.33;1.83;;;;;;;;;;4970132;28;20030;-88
2021/10/13 13:15:20;;;;;;;6.85;1.92;;;;;;;;;;4969790;28;20027;-88
2021/10/13 13:17:45;;;;;;;6.37;1.70;;;;;;;;;;4970265;28;20034;-89
2021/10/13 13:20:10;;;;;;;9.37;2.40;;;;;;;;;;4969237;28;20349;-88
2021/10/13 13:22:36;;;;;;;6.63;1.35;;;;;;;;;;4970922;28;20413;-88
2021/10/13 13:25:01;;;;;;;4.78;1.77;;;;;;;;;;4981686;28;20019;-87
2021/10/13 13:27:26;;;;;;;8.57;2.60;;;;;;;;;;4985688;28;20386;-90
2021/10/13 13:29:52;;;;;;;11.15;2.63;;;;;;;;;;4981724;28;20039;-89
2021/10/13 13:32:17;;;;;;;6.50;1.77;;;;;;;;;;4971681;28;20053;-89
2021/10/13 13:34:42;;;;;;;7.43;1.70;;;;;;;;;;4971800;28;20015;-89
2021/10/13 13:37:07;;;;;;;9.10;1.65;;;;;;;;;;4973755;28;20442;-89
2021/10/13 13:39:32;;;;;;;6.47;1.90;;;;;;;;;;4975187;28;20033;-89
2021/10/13 13:41:58;;;;;;;4.00;1.40;;;;;;;;;;4973517;28;20856;-88
2021/10/13 13:44:23;;;;;;;8.93;1.57;;;;;;;;;;4975245;28;20051;-88
2021/10/13 13:46:48;;;;;;;7.70;1.80;;;;;;;;;;4975323;28;20293;-87
2021/10/13 13:49:14;;;;;;;6.70;1.85;;;;;;;;;;4973757;28;20473;-87
2021/10/13 13:51:39;;;;;;;8.88;2.20;;;;;;;;;;4973293;28;20487;-87
2021/10/13 13:54:05;;;;;;;8.03;1.60;;;;;;;;;;4974848;28;20110;-87
2021/10/13 13:56:31;;;;;;;9.37;1.80;;;;;;;;;;4976298;28;20305;-87
2021/10/13 13:58:56;;;;;;;9.73;1.77;;;;;;;;;;4976418;28;20316;-87
2021/10/13 14:01:22;;;;;;;5.70;1.73;;;;;;;;;;4994245;28;20049;-87
2021/10/13 14:03:47;;;;;;;6.35;1.55;;;;;;;;;;4982766;28;20019;-87
2021/10/13 14:06:12;;;;;;;6.67;1.50;;;;;;;;;;4992392;28;20022;-87
2021/10/13 14:08:38;;;;;;;7.22;1.60;;;;;;;;;;4994069;28;20319;-88
2021/10/13 14:11:04;;;;;;;9.68;1.65;;;;;;;;;;4976265;28;20161;-87
2021/10/13 14:13:29;;;;;;;7.72;1.70;;;;;;;;;;4993649;28;20033;-87
2021/10/13 14:15:54;;;;;;;9.07;1.80;;;;;;;;;;4976231;28;20462;-87
2021/10/13 14:18:19;;;;;;;8.38;2.05;;;;;;;;;;4976186;28;20022;-88
2021/10/13 14:20:44;;;;;;;8.90;1.70;;;;;;;;;;4976184;28;20030;-88
2021/10/13 14:23:10;;;;;;;12.55;2.35;;;;;;;;;;4976131;28;20265;-88
2021/10/13 14:25:35;;;;;;;7.15;1.95;;;;;;;;;;4993734;28;20088;-88
2021/10/13 14:28:01;;;;;;;9.57;2.10;;;;;;;;;;4993686;28;20030;-88
2021/10/13 14:30:26;;;;;;;11.50;1.83;;;;;;;;;;4975990;28;20038;-88
2021/10/13 14:32:51;;;;;;;12.67;1.87;;;;;;;;;;4993534;28;20026;-88
2021/10/13 14:35:17;;;;;;;10.90;2.58;;;;;;;;;;4975849;28;20725;-88
2021/10/13 14:37:42;;;;;;;12.60;2.75;;;;;;;;;;4993375;28;20675;-87